Time;durP1;ratioP1;P1;durP2;ratioP2;P2;SDS_P1;SDS_P2;PMS_P1;PMS_P2;Temp;Humidity;BMP_temperature;BMP_pressure;BME280_temperature;BME280_humidity;BME280_pressure;Samples;Min_cycle;Max_cycle;Signal;HPM_P1;HPM_P2
2021/01/19 00:00:10;;;;;;;110.97;54.00;;;;;;;;;;5115013;27;20042;-50
2021/01/19 00:02:36;;;;;;;150.00;69.32;;;;;;;;;;5113710;27;20035;-50
2021/01/19 00:05:03;;;;;;;93.15;47.58;;;;;;;;;;5115953;27;20478;-49
2021/01/19 00:07:29;;;;;;;86.13;45.20;;;;;;;;;;5115460;27;20035;-51
2021/01/19 00:09:55;;;;;;;96.95;50.95;;;;;;;;;;5128281;27;20038;-50
2021/01/19 00:12:22;;;;;;;89.90;46.92;;;;;;;;;;5126612;27;20031;-49
2021/01/19 00:14:48;;;;;;;102.60;52.83;;;;;;;;;;5126852;27;20019;-50
2021/01/19 00:17:14;;;;;;;119.78;60.75;;;;;;;;;;5128946;27;20019;-50
2021/01/19 00:19:40;;;;;;;151.20;72.68;;;;;;;;;;5131948;27;20027;-50
2021/01/19 00:22:06;;;;;;;220.13;101.47;;;;;;;;;;5133231;27;20031;-50
2021/01/19 00:24:32;;;;;;;143.23;71.13;;;;;;;;;;5133701;27;20046;-50
2021/01/19 00:26:58;;;;;;;100.03;50.80;;;;;;;;;;5133772;27;20026;-50
2021/01/19 00:29:24;;;;;;;142.85;69.22;;;;;;;;;;5133857;27;20429;-50
2021/01/19 00:31:50;;;;;;;145.50;68.50;;;;;;;;;;5133953;27;20090;-49
2021/01/19 00:34:17;;;;;;;140.90;71.03;;;;;;;;;;5132052;27;20031;-51
2021/01/19 00:36:43;;;;;;;137.55;68.20;;;;;;;;;;5133500;27;20062;-50
2021/01/19 00:39:09;;;;;;;123.68;60.42;;;;;;;;;;5132818;27;20027;-50
2021/01/19 00:41:35;;;;;;;155.25;71.45;;;;;;;;;;5133680;27;20041;-50
2021/01/19 00:44:01;;;;;;;127.72;62.60;;;;;;;;;;5133085;27;20551;-50
2021/01/19 00:46:27;;;;;;;131.02;64.25;;;;;;;;;;5133530;27;20016;-50
2021/01/19 00:48:53;;;;;;;124.93;60.97;;;;;;;;;;5133363;27;20458;-50
2021/01/19 00:51:20;;;;;;;120.63;57.80;;;;;;;;;;5131763;27;20485;-49
2021/01/19 00:53:46;;;;;;;120.18;58.83;;;;;;;;;;5132857;27;20022;-50
2021/01/19 00:56:12;;;;;;;111.32;54.10;;;;;;;;;;5133363;27;20027;-51
2021/01/19 00:58:38;;;;;;;153.15;71.47;;;;;;;;;;5114218;27;20390;-48
2021/01/19 01:01:04;;;;;;;128.00;62.17;;;;;;;;;;5132856;27;20034;-50
2021/01/19 01:03:30;;;;;;;136.52;65.07;;;;;;;;;;5128797;27;20578;-50
2021/01/19 01:05:57;;;;;;;173.48;78.43;;;;;;;;;;5118162;27;20031;-49
2021/01/19 01:08:23;;;;;;;146.68;66.07;;;;;;;;;;5113687;28;20115;-51
2021/01/19 01:10:49;;;;;;;122.97;58.63;;;;;;;;;;5113733;28;20479;-49
2021/01/19 01:13:17;;;;;;;109.72;52.92;;;;;;;;;;5112378;28;20031;-49
2021/01/19 01:15:43;;;;;;;105.80;50.58;;;;;;;;;;5110783;28;20076;-49
2021/01/19 01:18:12;;;;;;;109.57;51.28;;;;;;;;;;5113200;28;20451;-50
2021/01/19 01:20:38;;;;;;;112.88;55.22;;;;;;;;;;5124606;28;20102;-49
2021/01/19 01:23:05;;;;;;;137.25;64.53;;;;;;;;;;5113057;28;20073;-49
2021/01/19 01:25:31;;;;;;;195.38;86.70;;;;;;;;;;5114261;28;20028;-49
2021/01/19 01:27:57;;;;;;;153.32;72.97;;;;;;;;;;5119771;28;20031;-52
2021/01/19 01:30:23;;;;;;;140.52;66.80;;;;;;;;;;5126920;28;20051;-50
2021/01/19 01:32:52;;;;;;;135.45;62.95;;;;;;;;;;5118867;28;20015;-50
2021/01/19 01:35:19;;;;;;;140.73;64.05;;;;;;;;;;5132672;28;20039;-50
2021/01/19 01:37:48;;;;;;;139.25;61.63;;;;;;;;;;5131293;28;20143;-50
2021/01/19 01:40:22;;;;;;;146.13;65.10;;;;;;;;;;5124480;28;20396;-50
2021/01/19 01:42:48;;;;;;;148.43;67.43;;;;;;;;;;5119703;28;20036;-50
2021/01/19 01:45:17;;;;;;;171.90;78.70;;;;;;;;;;5132420;28;20027;-51
2021/01/19 01:47:43;;;;;;;142.77;63.83;;;;;;;;;;5130733;28;20034;-51
2021/01/19 01:50:10;;;;;;;115.78;52.92;;;;;;;;;;5132815;28;20054;-50
2021/01/19 01:52:36;;;;;;;167.02;70.22;;;;;;;;;;5132874;28;20020;-51
2021/01/19 01:55:02;;;;;;;122.00;55.95;;;;;;;;;;5124282;28;20042;-50
2021/01/19 01:57:28;;;;;;;126.82;59.85;;;;;;;;;;5131548;28;20024;-50
2021/01/19 01:59:59;;;;;;;131.15;62.92;;;;;;;;;;5112936;28;20046;-49
2021/01/19 02:02:25;;;;;;;133.60;61.85;;;;;;;;;;5114499;27;20138;-49
2021/01/19 02:04:51;;;;;;;121.63;58.90;;;;;;;;;;5116152;28;20098;-50
2021/01/19 02:07:24;;;;;;;117.50;57.63;;;;;;;;;;5123296;27;20028;-50
2021/01/19 02:09:56;;;;;;;111.45;51.85;;;;;;;;;;5118863;27;20044;-50
2021/01/19 02:12:22;;;;;;;;;;;;;;;;;;5116193;27;20023;-49
2021/01/19 02:14:55;;;;;;;105.18;48.60;;;;;;;;;;5118507;27;19908;-50
2021/01/19 02:17:24;;;;;;;105.88;49.72;;;;;;;;;;5125086;27;20023;-50
2021/01/19 02:20:08;;;;;;;101.35;50.05;;;;;;;;;;5124108;27;20031;-49
2021/01/19 02:22:55;;;;;;;100.88;49.75;;;;;;;;;;5129278;27;20031;-49
2021/01/19 02:25:39;;;;;;;112.50;53.22;;;;;;;;;;5120772;27;20023;-51
2021/01/19 02:28:05;;;;;;;121.38;57.72;;;;;;;;;;5129479;27;20035;-50
2021/01/19 02:30:50;;;;;;;133.00;62.08;;;;;;;;;;5127139;27;20471;-50
2021/01/19 02:33:16;;;;;;;116.22;58.03;;;;;;;;;;5126562;27;20459;-50
2021/01/19 02:36:01;;;;;;;130.02;63.95;;;;;;;;;;5115468;27;20084;-51
2021/01/19 02:38:39;;;;;;;138.85;68.43;;;;;;;;;;5115582;27;20378;-50
2021/01/19 02:41:06;;;;;;;116.85;56.28;;;;;;;;;;5131512;27;20118;-52
2021/01/19 02:43:32;;;;;;;120.03;54.83;;;;;;;;;;5135912;27;20084;-51
2021/01/19 02:45:58;;;;;;;128.57;56.03;;;;;;;;;;5135736;27;20023;-51
2021/01/19 02:48:25;;;;;;;161.68;66.00;;;;;;;;;;5115338;28;20031;-51
2021/01/19 02:50:51;;;;;;;106.60;52.08;;;;;;;;;;5115410;28;20049;-51
2021/01/19 02:53:18;;;;;;;110.45;50.45;;;;;;;;;;5114973;28;20028;-51
2021/01/19 02:55:45;;;;;;;108.18;54.10;;;;;;;;;;5115489;28;20027;-51
2021/01/19 02:58:30;;;;;;;139.65;67.30;;;;;;;;;;5115064;28;20698;-51
2021/01/19 03:01:14;;;;;;;102.97;50.75;;;;;;;;;;5115093;28;20023;-51
2021/01/19 03:03:41;;;;;;;115.78;54.25;;;;;;;;;;5114834;28;20027;-51
2021/01/19 03:06:10;;;;;;;115.68;55.20;;;;;;;;;;5117177;27;20125;-51
2021/01/19 03:08:38;;;;;;;115.00;54.17;;;;;;;;;;5116650;27;20490;-51
2021/01/19 03:11:04;;;;;;;103.65;49.60;;;;;;;;;;5115178;28;20091;-51
2021/01/19 03:13:30;;;;;;;92.18;47.53;;;;;;;;;;5113969;28;20020;-50
2021/01/19 03:16:10;;;;;;;92.32;43.70;;;;;;;;;;5114964;28;20061;-51
2021/01/19 03:18:37;;;;;;;106.45;51.72;;;;;;;;;;5114996;28;20027;-50
2021/01/19 03:21:06;;;;;;;98.97;47.83;;;;;;;;;;5114844;28;20028;-50
2021/01/19 03:23:33;;;;;;;88.13;42.83;;;;;;;;;;5114658;28;20035;-51
2021/01/19 03:25:59;;;;;;;91.18;43.15;;;;;;;;;;5114638;28;20411;-50
2021/01/19 03:28:25;;;;;;;106.72;58.22;;;;;;;;;;5125967;27;20027;-51
2021/01/19 03:30:52;;;;;;;88.90;43.03;;;;;;;;;;5116068;27;20015;-50
2021/01/19 03:33:18;;;;;;;95.75;45.90;;;;;;;;;;5114647;28;20023;-49
2021/01/19 03:35:44;;;;;;;94.90;45.97;;;;;;;;;;5114150;28;20057;-51
2021/01/19 03:38:11;;;;;;;74.30;38.00;;;;;;;;;;5114435;28;20027;-50
2021/01/19 03:40:37;;;;;;;115.38;50.08;;;;;;;;;;5114353;28;20102;-51
2021/01/19 03:43:04;;;;;;;59.65;27.50;;;;;;;;;;5114344;28;20549;-51
2021/01/19 03:45:30;;;;;;;59.92;28.55;;;;;;;;;;5114398;28;20107;-51
2021/01/19 03:47:56;;;;;;;47.65;24.40;;;;;;;;;;5114221;28;20058;-51
2021/01/19 03:50:23;;;;;;;41.05;20.60;;;;;;;;;;5114420;28;20378;-50
2021/01/19 03:52:49;;;;;;;34.78;18.02;;;;;;;;;;5128490;27;20466;-50
2021/01/19 03:55:15;;;;;;;36.85;19.65;;;;;;;;;;5113896;28;20024;-51
2021/01/19 03:57:41;;;;;;;46.83;22.88;;;;;;;;;;5117559;27;20020;-51
2021/01/19 04:00:08;;;;;;;49.67;23.55;;;;;;;;;;5113906;28;20023;-51
2021/01/19 04:02:34;;;;;;;51.15;22.45;;;;;;;;;;5127709;27;20103;-51
2021/01/19 04:05:00;;;;;;;35.88;18.35;;;;;;;;;;5128425;27;20024;-50
2021/01/19 04:07:26;;;;;;;35.30;18.02;;;;;;;;;;5113743;28;20402;-51
2021/01/19 04:09:52;;;;;;;26.98;15.00;;;;;;;;;;5113443;28;20379;-51
2021/01/19 04:12:18;;;;;;;31.70;17.40;;;;;;;;;;5132056;27;20752;-50
2021/01/19 04:14:44;;;;;;;30.13;16.52;;;;;;;;;;5133921;27;20019;-50
2021/01/19 04:17:11;;;;;;;33.28;18.98;;;;;;;;;;5133960;27;20059;-50
2021/01/19 04:19:37;;;;;;;38.03;20.67;;;;;;;;;;5133733;27;20038;-50
2021/01/19 04:22:03;;;;;;;35.67;19.55;;;;;;;;;;5117358;27;20047;-51
2021/01/19 04:24:29;;;;;;;40.15;20.70;;;;;;;;;;5112577;28;20051;-50
2021/01/19 04:26:55;;;;;;;45.03;23.88;;;;;;;;;;5113200;28;20482;-51
2021/01/19 04:29:21;;;;;;;66.93;32.88;;;;;;;;;;5119399;27;20037;-50
2021/01/19 04:31:47;;;;;;;67.57;33.42;;;;;;;;;;5121462;27;20102;-50
2021/01/19 04:34:13;;;;;;;62.45;32.45;;;;;;;;;;5112813;28;20055;-51
2021/01/19 04:36:39;;;;;;;67.97;33.85;;;;;;;;;;5113347;28;20070;-49
2021/01/19 04:39:05;;;;;;;62.70;33.78;;;;;;;;;;5112811;28;20027;-50
2021/01/19 04:41:32;;;;;;;60.38;30.60;;;;;;;;;;5113157;28;20039;-50
2021/01/19 04:43:59;;;;;;;57.00;29.88;;;;;;;;;;5112791;28;20063;-50
2021/01/19 04:46:27;;;;;;;59.28;30.77;;;;;;;;;;5113035;28;20572;-51
2021/01/19 04:48:53;;;;;;;60.67;31.52;;;;;;;;;;5118756;27;20031;-50
2021/01/19 04:51:23;;;;;;;74.55;38.25;;;;;;;;;;5113988;27;20131;-50
2021/01/19 04:53:59;;;;;;;77.85;39.13;;;;;;;;;;5112997;28;20462;-50
2021/01/19 04:56:26;;;;;;;73.75;36.97;;;;;;;;;;5112872;28;20024;-50
2021/01/19 04:58:54;;;;;;;73.35;36.00;;;;;;;;;;5112722;28;20422;-51
2021/01/19 05:01:35;;;;;;;61.90;31.75;;;;;;;;;;5124049;27;20030;-51
2021/01/19 05:04:20;;;;;;;42.10;22.20;;;;;;;;;;5133166;27;20407;-50
2021/01/19 05:07:24;;;;;;;59.92;29.85;;;;;;;;;;5133374;27;20038;-50
2021/01/19 05:10:02;;;;;;;60.00;31.65;;;;;;;;;;5029647;28;20061;-50
2021/01/19 05:12:33;;;;;;;62.65;31.27;;;;;;;;;;5030014;28;20029;-50
2021/01/19 05:15:01;;;;;;;58.88;31.02;;;;;;;;;;5029838;28;20030;-50
2021/01/19 05:17:27;;;;;;;61.75;31.52;;;;;;;;;;5036030;28;20039;-49
2021/01/19 05:19:53;;;;;;;67.95;34.95;;;;;;;;;;5039927;28;20032;-49
2021/01/19 05:22:20;;;;;;;71.18;36.40;;;;;;;;;;5016810;28;20420;-50
2021/01/19 05:24:48;;;;;;;71.57;37.03;;;;;;;;;;5012888;28;20057;-50
2021/01/19 05:27:14;;;;;;;71.07;36.28;;;;;;;;;;5029224;28;20033;-49
2021/01/19 05:29:40;;;;;;;75.78;39.05;;;;;;;;;;5029378;28;20079;-49
2021/01/19 05:32:06;;;;;;;77.93;40.08;;;;;;;;;;5029013;28;20037;-50
2021/01/19 05:34:38;;;;;;;69.18;35.80;;;;;;;;;;5029564;28;20037;-51
2021/01/19 05:37:04;;;;;;;;;;;;;;;;;;5032329;28;20040;-50
2021/01/19 05:39:30;;;;;;;66.32;34.33;;;;;;;;;;5038706;28;19905;-51
2021/01/19 05:41:57;;;;;;;69.00;35.65;;;;;;;;;;5131390;27;20504;-51
2021/01/19 05:44:23;;;;;;;69.43;35.50;;;;;;;;;;5136051;27;20526;-50
2021/01/19 05:46:51;;;;;;;70.70;36.10;;;;;;;;;;5136711;27;20469;-51
2021/01/19 05:49:21;;;;;;;69.95;38.25;;;;;;;;;;5137028;27;20063;-51
2021/01/19 05:51:48;;;;;;;81.80;41.17;;;;;;;;;;5136996;27;20034;-51
2021/01/19 05:54:25;;;;;;;83.72;43.28;;;;;;;;;;5136400;27;20023;-51
2021/01/19 05:56:51;;;;;;;87.28;45.22;;;;;;;;;;5136985;27;20027;-51
2021/01/19 05:59:25;;;;;;;107.10;53.13;;;;;;;;;;5136668;27;20023;-51
2021/01/19 06:01:56;;;;;;;87.20;43.70;;;;;;;;;;5135271;27;20058;-50
2021/01/19 06:04:29;;;;;;;82.03;44.40;;;;;;;;;;5117799;27;20047;-50
2021/01/19 06:06:56;;;;;;;84.85;43.35;;;;;;;;;;5135623;27;20027;-50
2021/01/19 06:09:23;;;;;;;89.05;46.47;;;;;;;;;;5136662;27;20094;-51
2021/01/19 06:11:53;;;;;;;101.28;51.70;;;;;;;;;;5135959;27;20025;-51
2021/01/19 06:14:20;;;;;;;109.60;55.88;;;;;;;;;;5136531;27;20068;-51
2021/01/19 06:16:46;;;;;;;137.90;67.20;;;;;;;;;;5135913;27;20076;-51
2021/01/19 06:19:25;;;;;;;133.43;65.80;;;;;;;;;;5136384;27;20034;-49
2021/01/19 06:21:51;;;;;;;218.68;109.90;;;;;;;;;;5135911;27;20451;-51
2021/01/19 06:24:17;;;;;;;253.70;127.03;;;;;;;;;;5136345;27;20043;-49
2021/01/19 06:26:43;;;;;;;155.07;79.47;;;;;;;;;;5136323;27;20539;-51
2021/01/19 06:29:09;;;;;;;227.45;111.00;;;;;;;;;;5135162;27;20031;-49
2021/01/19 06:31:36;;;;;;;244.68;118.45;;;;;;;;;;5134188;27;20132;-48
2021/01/19 06:34:02;;;;;;;223.55;103.20;;;;;;;;;;5136084;27;20047;-51
2021/01/19 06:36:36;;;;;;;209.23;103.45;;;;;;;;;;5135847;27;20523;-51
2021/01/19 06:39:03;;;;;;;231.38;109.63;;;;;;;;;;5135992;27;20015;-51
2021/01/19 06:41:35;;;;;;;250.85;119.13;;;;;;;;;;5135873;27;20079;-51
2021/01/19 06:44:01;;;;;;;;;;;;;;;;;;5136422;27;20056;-51
2021/01/19 06:46:28;;;;;;;235.30;112.45;;;;;;;;;;5136222;27;19911;-51
2021/01/19 06:48:58;;;;;;;240.18;114.65;;;;;;;;;;5134749;27;20022;-51
2021/01/19 06:51:24;;;;;;;225.85;112.35;;;;;;;;;;5136022;27;20027;-51
2021/01/19 06:53:55;;;;;;;210.57;111.00;;;;;;;;;;5135693;27;20027;-51
2021/01/19 06:56:31;;;;;;;204.40;97.83;;;;;;;;;;5135685;27;20030;-50
2021/01/19 06:58:57;;;;;;;263.75;119.38;;;;;;;;;;5135626;27;20470;-51
2021/01/19 07:01:23;;;;;;;201.48;96.32;;;;;;;;;;5135731;27;20028;-51
2021/01/19 07:03:55;;;;;;;370.48;155.27;;;;;;;;;;5135431;27;20562;-51
2021/01/19 07:06:21;;;;;;;;;;;;;;;;;;5135981;27;20032;-51
2021/01/19 07:09:00;;;;;;;255.30;121.43;;;;;;;;;;5135406;27;19918;-51
2021/01/19 07:11:26;;;;;;;205.05;104.60;;;;;;;;;;5135266;27;20023;-51
2021/01/19 07:14:04;;;;;;;183.10;92.78;;;;;;;;;;5135492;27;20463;-51
2021/01/19 07:16:32;;;;;;;205.05;101.53;;;;;;;;;;5135058;27;20015;-51
2021/01/19 07:19:16;;;;;;;221.32;109.22;;;;;;;;;;5135382;27;20054;-51
2021/01/19 07:21:52;;;;;;;224.27;111.15;;;;;;;;;;5134903;27;20035;-51
2021/01/19 07:24:21;;;;;;;196.00;101.15;;;;;;;;;;5135116;27;20461;-51
2021/01/19 07:26:47;;;;;;;202.70;108.90;;;;;;;;;;5134931;27;20025;-50
2021/01/19 07:29:15;;;;;;;198.90;104.75;;;;;;;;;;5135383;27;20019;-50
2021/01/19 07:31:41;;;;;;;208.02;108.93;;;;;;;;;;5134918;27;20023;-50
2021/01/19 07:34:08;;;;;;;231.40;118.18;;;;;;;;;;5134643;27;20023;-51
2021/01/19 07:36:34;;;;;;;249.27;127.93;;;;;;;;;;5134650;27;20080;-50
2021/01/19 07:39:10;;;;;;;234.90;123.10;;;;;;;;;;5134856;27;20060;-50
2021/01/19 07:41:36;;;;;;;213.82;110.05;;;;;;;;;;5134602;27;20031;-50
2021/01/19 07:44:03;;;;;;;205.45;108.90;;;;;;;;;;5134611;27;20087;-50
2021/01/19 07:46:30;;;;;;;191.90;104.43;;;;;;;;;;5135234;27;20044;-51
2021/01/19 07:49:00;;;;;;;186.00;99.00;;;;;;;;;;5134251;27;20048;-50
2021/01/19 07:51:26;;;;;;;174.02;93.00;;;;;;;;;;5134682;27;20417;-51
2021/01/19 07:53:52;;;;;;;158.10;84.13;;;;;;;;;;5134270;27;20046;-50
2021/01/19 07:56:31;;;;;;;147.35;78.50;;;;;;;;;;5134410;27;20363;-51
2021/01/19 07:58:58;;;;;;;134.63;72.50;;;;;;;;;;5134033;27;20019;-50
2021/01/19 08:01:25;;;;;;;112.47;58.53;;;;;;;;;;5134305;27;20485;-50
2021/01/19 08:03:51;;;;;;;119.03;65.65;;;;;;;;;;5134083;27;20030;-50
2021/01/19 08:06:17;;;;;;;143.05;74.97;;;;;;;;;;5134313;27;20030;-50
2021/01/19 08:08:44;;;;;;;128.93;70.57;;;;;;;;;;5133899;27;20051;-51
2021/01/19 08:11:20;;;;;;;244.35;131.73;;;;;;;;;;5133737;27;20015;-51
2021/01/19 08:13:57;;;;;;;124.47;67.57;;;;;;;;;;5134099;27;20085;-51
2021/01/19 08:16:27;;;;;;;110.20;60.80;;;;;;;;;;5134071;27;20019;-50
2021/01/19 08:19:03;;;;;;;105.60;59.33;;;;;;;;;;5134016;27;20027;-50
2021/01/19 08:21:30;;;;;;;114.80;61.80;;;;;;;;;;5133766;27;20094;-50
2021/01/19 08:24:00;;;;;;;85.97;49.55;;;;;;;;;;5115841;27;20094;-51
2021/01/19 08:26:27;;;;;;;102.40;56.53;;;;;;;;;;5133930;27;20028;-51
2021/01/19 08:28:53;;;;;;;104.75;56.58;;;;;;;;;;5133747;27;20371;-51
2021/01/19 08:31:19;;;;;;;116.13;62.70;;;;;;;;;;5133940;27;20466;-51
2021/01/19 08:33:50;;;;;;;68.40;36.60;;;;;;;;;;5133606;27;20027;-51
2021/01/19 08:36:19;;;;;;;85.63;44.95;;;;;;;;;;5133782;27;20142;-51
2021/01/19 08:38:48;;;;;;;123.38;69.55;;;;;;;;;;5133679;27;20055;-49
2021/01/19 08:41:18;;;;;;;66.20;37.22;;;;;;;;;;5133654;27;20019;-51
2021/01/19 08:43:56;;;;;;;56.83;34.30;;;;;;;;;;5133607;27;20035;-51
2021/01/19 08:46:23;;;;;;;66.50;39.00;;;;;;;;;;5133647;27;20079;-51
2021/01/19 08:48:52;;;;;;;81.18;44.88;;;;;;;;;;5133600;27;20047;-51
2021/01/19 08:51:25;;;;;;;89.57;55.90;;;;;;;;;;5133753;27;20030;-51
2021/01/19 08:53:52;;;;;;;169.93;97.60;;;;;;;;;;5133276;27;20023;-51
2021/01/19 08:56:19;;;;;;;107.18;63.70;;;;;;;;;;5133446;27;20066;-51
2021/01/19 08:58:45;;;;;;;110.10;62.88;;;;;;;;;;5133346;27;20483;-51
2021/01/19 09:01:11;;;;;;;102.78;59.97;;;;;;;;;;5133502;27;20031;-52
2021/01/19 09:03:37;;;;;;;98.82;55.80;;;;;;;;;;5114541;27;20435;-51
2021/01/19 09:06:03;;;;;;;121.25;68.82;;;;;;;;;;5133237;27;20015;-51
2021/01/19 09:08:30;;;;;;;140.73;86.05;;;;;;;;;;5133468;27;20120;-51
2021/01/19 09:11:06;;;;;;;132.38;77.97;;;;;;;;;;5132324;27;20496;-51
2021/01/19 09:13:33;;;;;;;115.47;68.07;;;;;;;;;;5114964;28;20023;-51
2021/01/19 09:15:59;;;;;;;106.03;59.95;;;;;;;;;;5114670;28;20027;-52
2021/01/19 09:18:25;;;;;;;103.65;59.08;;;;;;;;;;5133169;27;20072;-51
2021/01/19 09:21:01;;;;;;;123.57;70.45;;;;;;;;;;5133107;28;20023;-51
2021/01/19 09:23:31;;;;;;;135.45;80.03;;;;;;;;;;5132865;28;20110;-51
2021/01/19 09:26:02;;;;;;;137.52;78.53;;;;;;;;;;5132992;28;20674;-51
2021/01/19 09:28:28;;;;;;;128.95;74.22;;;;;;;;;;5131906;28;20019;-51
2021/01/19 09:30:54;;;;;;;138.25;81.05;;;;;;;;;;5129756;28;20030;-51
2021/01/19 09:33:20;;;;;;;158.18;94.63;;;;;;;;;;5132979;28;20034;-51
2021/01/19 09:35:46;;;;;;;128.02;75.40;;;;;;;;;;5132464;28;20145;-51
2021/01/19 09:38:13;;;;;;;135.55;80.07;;;;;;;;;;5132710;28;20023;-51
2021/01/19 09:40:39;;;;;;;132.07;78.57;;;;;;;;;;5132749;28;20462;-52
2021/01/19 09:43:06;;;;;;;146.07;84.90;;;;;;;;;;5132948;28;20038;-51
2021/01/19 09:45:34;;;;;;;150.55;88.45;;;;;;;;;;5132772;28;20057;-52
2021/01/19 09:48:01;;;;;;;196.00;111.10;;;;;;;;;;5132858;28;20015;-52
2021/01/19 09:50:27;;;;;;;152.38;89.85;;;;;;;;;;5132816;28;20152;-53
2021/01/19 09:52:53;;;;;;;149.02;84.63;;;;;;;;;;5132854;28;20088;-52
2021/01/19 09:55:20;;;;;;;134.57;78.72;;;;;;;;;;5132521;28;20023;-52
2021/01/19 09:58:07;;;;;;;123.93;73.15;;;;;;;;;;5132753;28;20382;-52
2021/01/19 10:00:34;;;;;;;123.45;75.53;;;;;;;;;;5132704;28;20061;-52
2021/01/19 10:03:15;;;;;;;120.93;78.40;;;;;;;;;;5132548;28;20113;-52
2021/01/19 10:05:41;;;;;;;80.20;49.22;;;;;;;;;;5132778;28;20488;-52
2021/01/19 10:08:09;;;;;;;83.03;51.55;;;;;;;;;;5132880;28;20148;-52
2021/01/19 10:10:39;;;;;;;94.03;57.17;;;;;;;;;;5132713;28;20016;-52
2021/01/19 10:13:05;;;;;;;80.55;51.83;;;;;;;;;;5132933;28;20023;-52
2021/01/19 10:15:32;;;;;;;98.50;62.08;;;;;;;;;;5132794;28;20027;-52
2021/01/19 10:17:58;;;;;;;87.80;56.20;;;;;;;;;;5132494;28;20110;-52
2021/01/19 10:20:45;;;;;;;76.20;52.80;;;;;;;;;;5132829;28;20020;-52
2021/01/19 10:23:11;;;;;;;91.10;65.75;;;;;;;;;;5134580;27;20027;-52
2021/01/19 10:25:37;;;;;;;104.15;69.85;;;;;;;;;;5136415;27;20110;-53
2021/01/19 10:28:05;;;;;;;89.88;63.33;;;;;;;;;;5136215;27;20027;-52
2021/01/19 10:30:37;;;;;;;80.68;56.42;;;;;;;;;;5136452;27;20050;-53
2021/01/19 10:33:03;;;;;;;86.25;65.20;;;;;;;;;;5136162;27;20030;-53
2021/01/19 10:35:31;;;;;;;88.07;63.33;;;;;;;;;;5136156;27;20460;-53
2021/01/19 10:38:01;;;;;;;93.32;69.22;;;;;;;;;;5136094;27;20034;-53
2021/01/19 10:40:27;;;;;;;87.18;61.47;;;;;;;;;;5135928;27;20023;-54
2021/01/19 10:42:54;;;;;;;97.95;71.00;;;;;;;;;;5136006;27;20077;-53
2021/01/19 10:45:25;;;;;;;88.75;67.72;;;;;;;;;;5136338;27;20019;-54
2021/01/19 10:47:51;;;;;;;85.35;63.35;;;;;;;;;;5136076;27;20023;-53
2021/01/19 10:50:19;;;;;;;80.03;63.20;;;;;;;;;;5135777;27;20512;-53
2021/01/19 10:52:53;;;;;;;84.30;65.70;;;;;;;;;;5135983;27;20050;-54
2021/01/19 10:55:19;;;;;;;85.97;65.78;;;;;;;;;;5135929;27;20101;-54
2021/01/19 10:57:45;;;;;;;76.43;61.00;;;;;;;;;;5135629;27;20026;-54
2021/01/19 11:00:11;;;;;;;80.70;62.10;;;;;;;;;;5135233;27;20042;-54
2021/01/19 11:02:37;;;;;;;83.28;67.88;;;;;;;;;;5135360;27;20054;-54
2021/01/19 11:05:04;;;;;;;86.95;70.97;;;;;;;;;;5135445;27;20030;-54
2021/01/19 11:07:30;;;;;;;94.45;72.50;;;;;;;;;;5135451;27;20434;-54
2021/01/19 11:09:56;;;;;;;100.95;77.72;;;;;;;;;;5135439;27;20559;-54
2021/01/19 11:12:22;;;;;;;98.53;78.82;;;;;;;;;;5135334;27;20020;-53
2021/01/19 11:14:48;;;;;;;110.90;85.57;;;;;;;;;;5135078;27;20027;-53
2021/01/19 11:17:14;;;;;;;114.68;93.78;;;;;;;;;;5135441;27;20019;-53
2021/01/19 11:19:40;;;;;;;113.40;91.03;;;;;;;;;;5135018;27;20030;-54
2021/01/19 11:22:09;;;;;;;106.38;83.45;;;;;;;;;;5135376;27;20038;-54
2021/01/19 11:24:35;;;;;;;103.60;82.32;;;;;;;;;;5134842;27;20015;-53
2021/01/19 11:27:01;;;;;;;111.25;83.90;;;;;;;;;;5135248;27;20378;-54
2021/01/19 11:29:27;;;;;;;108.55;83.57;;;;;;;;;;5134958;27;20458;-51
2021/01/19 11:31:53;;;;;;;110.55;82.65;;;;;;;;;;5134949;27;20030;-53
2021/01/19 11:34:19;;;;;;;106.25;81.20;;;;;;;;;;5134198;27;20114;-52
2021/01/19 11:36:45;;;;;;;100.03;74.97;;;;;;;;;;5134262;27;20516;-53
2021/01/19 11:39:11;;;;;;;73.00;55.65;;;;;;;;;;5134886;27;20019;-54
2021/01/19 11:41:42;;;;;;;70.63;50.70;;;;;;;;;;5134753;27;20161;-54
2021/01/19 11:44:10;;;;;;;68.03;53.08;;;;;;;;;;5134535;27;20027;-53
2021/01/19 11:46:38;;;;;;;82.70;61.53;;;;;;;;;;5120368;27;20015;-54
2021/01/19 11:49:05;;;;;;;71.20;54.92;;;;;;;;;;5116081;27;20383;-52
2021/01/19 11:51:32;;;;;;;93.68;68.63;;;;;;;;;;5124012;27;20027;-52
2021/01/19 11:54:00;;;;;;;217.57;149.50;;;;;;;;;;5133268;27;20090;-53
2021/01/19 11:56:38;;;;;;;79.78;63.38;;;;;;;;;;5134264;27;20026;-52
2021/01/19 11:59:05;;;;;;;46.67;38.90;;;;;;;;;;5134028;27;20020;-54
2021/01/19 12:01:32;;;;;;;52.13;41.88;;;;;;;;;;5131358;27;20027;-52
2021/01/19 12:03:58;;;;;;;48.40;40.20;;;;;;;;;;5119499;27;20038;-53
2021/01/19 12:06:24;;;;;;;53.80;43.78;;;;;;;;;;5134508;27;20034;-54
2021/01/19 12:08:50;;;;;;;79.18;63.72;;;;;;;;;;5134140;27;20098;-53
2021/01/19 12:11:17;;;;;;;62.47;50.05;;;;;;;;;;5134202;27;20493;-54
2021/01/19 12:13:43;;;;;;;65.30;54.83;;;;;;;;;;5123026;27;20016;-54
2021/01/19 12:16:10;;;;;;;80.43;63.25;;;;;;;;;;5132348;27;20031;-54
2021/01/19 12:18:37;;;;;;;82.80;63.47;;;;;;;;;;5113424;27;20016;-53
2021/01/19 12:21:04;;;;;;;65.82;52.45;;;;;;;;;;5116024;27;20031;-54
2021/01/19 12:23:30;;;;;;;62.70;50.65;;;;;;;;;;5114668;27;20478;-53
2021/01/19 12:25:59;;;;;;;69.80;56.75;;;;;;;;;;5120311;27;20025;-54
2021/01/19 12:28:26;;;;;;;61.42;49.50;;;;;;;;;;5126099;27;20027;-54
2021/01/19 12:30:53;;;;;;;64.35;49.88;;;;;;;;;;5133822;27;20019;-54
2021/01/19 12:33:19;;;;;;;47.33;39.17;;;;;;;;;;5133912;27;20110;-54
2021/01/19 12:35:45;;;;;;;45.47;38.42;;;;;;;;;;5133338;27;20101;-54
2021/01/19 12:38:11;;;;;;;69.97;49.55;;;;;;;;;;5132878;27;20023;-53
2021/01/19 12:40:38;;;;;;;48.53;39.17;;;;;;;;;;5128200;27;20067;-53
2021/01/19 12:43:04;;;;;;;55.10;41.75;;;;;;;;;;5123829;27;20672;-54
2021/01/19 12:45:30;;;;;;;90.65;61.90;;;;;;;;;;5125322;27;20103;-54
2021/01/19 12:47:56;;;;;;;53.17;42.38;;;;;;;;;;5132604;27;20431;-52
2021/01/19 12:50:22;;;;;;;50.50;41.42;;;;;;;;;;5133076;27;20053;-52
2021/01/19 12:52:48;;;;;;;53.17;39.95;;;;;;;;;;5133015;27;20076;-52
2021/01/19 12:55:14;;;;;;;45.55;35.83;;;;;;;;;;5132718;27;20031;-51
2021/01/19 12:57:40;;;;;;;45.70;37.15;;;;;;;;;;5122874;27;20537;-51
2021/01/19 13:00:07;;;;;;;47.10;33.33;;;;;;;;;;5121629;27;20094;-51
2021/01/19 13:02:33;;;;;;;49.60;40.00;;;;;;;;;;5128358;27;20381;-54
2021/01/19 13:05:02;;;;;;;58.05;47.90;;;;;;;;;;5132048;27;20027;-52
2021/01/19 13:07:29;;;;;;;56.28;46.88;;;;;;;;;;5129163;27;20031;-53
2021/01/19 13:09:55;;;;;;;62.67;49.80;;;;;;;;;;5127310;27;20019;-53
2021/01/19 13:12:22;;;;;;;72.03;59.25;;;;;;;;;;5128472;27;20651;-55
2021/01/19 13:14:48;;;;;;;76.90;62.35;;;;;;;;;;5131892;27;20046;-54
2021/01/19 13:17:14;;;;;;;79.32;64.43;;;;;;;;;;5132681;27;20027;-54
2021/01/19 13:19:41;;;;;;;82.13;64.80;;;;;;;;;;5127844;28;20015;-51
2021/01/19 13:22:07;;;;;;;99.30;79.07;;;;;;;;;;5128817;28;20034;-53
2021/01/19 13:24:33;;;;;;;82.10;64.13;;;;;;;;;;5132314;28;20020;-51
2021/01/19 13:26:59;;;;;;;84.35;62.90;;;;;;;;;;5113610;28;20121;-52
2021/01/19 13:29:25;;;;;;;77.30;59.60;;;;;;;;;;5127861;28;20035;-51
2021/01/19 13:31:52;;;;;;;86.15;62.33;;;;;;;;;;5130779;28;20019;-52
2021/01/19 13:34:18;;;;;;;80.60;59.80;;;;;;;;;;5120220;28;20035;-50
2021/01/19 13:36:44;;;;;;;81.68;61.47;;;;;;;;;;5119384;28;20412;-49
2021/01/19 13:39:11;;;;;;;76.28;55.20;;;;;;;;;;5120794;28;20019;-51
2021/01/19 13:41:37;;;;;;;66.90;51.33;;;;;;;;;;5123248;28;20027;-50
2021/01/19 13:44:03;;;;;;;67.10;50.35;;;;;;;;;;5118120;28;20023;-52
2021/01/19 13:46:30;;;;;;;80.93;57.40;;;;;;;;;;5116413;28;20023;-49
2021/01/19 13:48:56;;;;;;;69.18;52.45;;;;;;;;;;5122519;28;20019;-50
2021/01/19 13:51:23;;;;;;;66.93;50.83;;;;;;;;;;5123324;28;20065;-49
2021/01/19 13:53:49;;;;;;;82.88;62.00;;;;;;;;;;5118267;28;20094;-51
2021/01/19 13:56:15;;;;;;;79.40;57.35;;;;;;;;;;5102797;28;20505;-49
2021/01/19 13:58:42;;;;;;;97.05;72.05;;;;;;;;;;5123345;27;20039;-50
2021/01/19 14:01:08;;;;;;;103.63;78.97;;;;;;;;;;5130408;27;20466;-49
2021/01/19 14:03:34;;;;;;;118.50;89.03;;;;;;;;;;5125133;27;20120;-50
2021/01/19 14:06:00;;;;;;;112.25;80.53;;;;;;;;;;5129723;27;20019;-49
2021/01/19 14:08:26;;;;;;;96.15;69.18;;;;;;;;;;5122697;27;20042;-49
2021/01/19 14:10:52;;;;;;;104.25;73.20;;;;;;;;;;5121000;27;20033;-49
2021/01/19 14:13:18;;;;;;;102.53;71.95;;;;;;;;;;5128448;27;20026;-48
2021/01/19 14:15:44;;;;;;;95.90;67.55;;;;;;;;;;5127896;27;20023;-48